Time;durP1;ratioP1;P1;durP2;ratioP2;P2;SDS_P1;SDS_P2;PMS_P1;PMS_P2;Temp;Humidity;BMP_temperature;BMP_pressure;BME280_temperature;BME280_humidity;BME280_pressure;Samples;Min_cycle;Max_cycle;Signal;HPM_P1;HPM_P2
2023/01/18 00:00:51;;;;;;;36.90;7.50;;;;;;;14.56;82.65;99629.31;5032539;28;20112;-86
2023/01/18 00:03:17;;;;;;;31.83;7.75;;;;;;;14.69;82.20;99635.88;5032030;28;20022;-83
2023/01/18 00:05:43;;;;;;;40.38;8.23;;;;;;;14.75;81.84;99642.44;5032246;28;20044;-82
2023/01/18 00:08:15;;;;;;;38.20;7.95;;;;;;;14.89;81.23;99640.88;5032415;28;20034;-83
2023/01/18 00:10:42;;;;;;;35.95;7.70;;;;;;;14.91;80.73;99633.41;5032208;28;20037;-85
2023/01/18 00:13:08;;;;;;;41.13;8.27;;;;;;;15.00;80.43;99644.03;5032048;28;20065;-83
2023/01/18 00:15:34;;;;;;;41.42;7.20;;;;;;;15.14;80.05;99645.97;5031631;28;20124;-82
2023/01/18 00:18:00;;;;;;;47.72;8.55;;;;;;;15.12;79.41;99633.63;5031989;28;20437;-83
2023/01/18 00:20:27;;;;;;;47.58;8.63;;;;;;;15.23;78.93;99639.50;5031545;28;20080;-83
2023/01/18 00:22:53;;;;;;;41.35;7.55;;;;;;;15.21;78.56;99630.72;5031479;28;20075;-84
2023/01/18 00:25:20;;;;;;;46.03;8.15;;;;;;;15.21;78.34;99633.41;5035793;28;20033;-86
2023/01/18 00:27:52;;;;;;;34.97;7.40;;;;;;;15.37;78.07;99646.03;5033205;28;20497;-84
2023/01/18 00:30:20;;;;;;;43.60;7.82;;;;;;;15.32;77.58;99645.69;5031853;28;20477;-83
2023/01/18 00:32:52;;;;;;;41.78;8.23;;;;;;;15.24;77.57;99629.50;5031356;28;20083;-83
2023/01/18 00:35:20;;;;;;;38.13;7.43;;;;;;;15.29;77.61;99632.50;5031228;28;20104;-82
2023/01/18 00:37:47;;;;;;;38.85;8.30;;;;;;;15.32;77.16;99648.41;5031512;28;20067;-83
2023/01/18 00:40:14;;;;;;;32.40;7.72;;;;;;;15.18;77.66;99638.34;5031627;28;20029;-83
2023/01/18 00:45:26;;;;;;;51.10;8.18;;;;;;;15.29;78.07;99626.28;5031460;28;20477;-84
2023/01/18 00:47:51;;;;;;;33.45;7.45;;;;;;;15.25;77.74;99631.19;5031717;28;20040;-83
2023/01/18 00:50:19;;;;;;;35.13;7.25;;;;;;;15.24;77.42;99641.19;5032611;28;20037;-83
2023/01/18 00:52:45;;;;;;;34.15;7.38;;;;;;;15.24;77.36;99622.22;5032215;28;20037;-83
2023/01/18 00:55:12;;;;;;;34.95;7.50;;;;;;;15.44;77.42;99640.72;5033300;28;20029;-82
2023/01/18 00:57:38;;;;;;;35.70;8.02;;;;;;;15.50;76.97;99634.63;5036418;28;20029;-83
2023/01/18 01:00:05;;;;;;;55.67;8.15;;;;;;;15.47;76.53;99622.25;5040024;28;20131;-82
2023/01/18 01:02:30;;;;;;;31.30;7.35;;;;;;;15.55;76.08;99626.78;5031008;28;20029;-83
2023/01/18 01:07:39;;;;;;;49.50;10.05;;;;;;;15.63;76.10;99624.00;5031527;28;20056;-84
2023/01/18 01:10:08;;;;;;;38.97;7.45;;;;;;;15.76;75.43;99635.09;5031412;28;20461;-83
2023/01/18 01:26:16;;;;;;;33.40;7.80;;;;;;;15.97;74.71;99621.69;5031122;28;20570;-83
2023/01/18 01:28:44;;;;;;;32.55;7.35;;;;;;;16.08;74.09;99626.69;5030714;28;20029;-83
2023/01/18 01:31:11;;;;;;;38.53;7.63;;;;;;;16.09;73.83;99613.94;5030195;28;20025;-85
2023/01/18 01:33:37;;;;;;;43.10;7.78;;;;;;;16.04;73.60;99617.22;5030642;28;20032;-84
2023/01/18 01:36:06;;;;;;;37.60;8.52;;;;;;;15.88;73.05;99592.94;5030131;28;20017;-84
2023/01/18 01:38:33;;;;;;;45.28;7.80;;;;;;;15.59;74.07;99580.19;5030439;28;20030;-84
2023/01/18 01:40:59;;;;;;;45.72;8.68;;;;;;;15.64;74.56;99598.59;5030274;28;20028;-82
2023/01/18 01:43:40;;;;;;;35.45;8.65;;;;;;;15.54;75.00;99614.25;5029989;28;20095;-83
2023/01/18 01:46:17;;;;;;;46.92;8.20;;;;;;;15.53;75.23;99621.56;5030249;28;20028;-84
2023/01/18 01:48:43;;;;;;;37.92;8.27;;;;;;;15.55;74.95;99626.78;5030557;28;20029;-83
2023/01/18 01:51:09;;;;;;;40.58;10.20;;;;;;;15.32;75.01;99626.72;5013364;28;20087;-84
2023/01/18 01:53:34;;;;;;;36.28;8.10;;;;;;;15.15;75.34;99615.19;5030803;28;20476;-83
2023/01/18 01:56:02;;;;;;;46.28;8.75;;;;;;;15.18;75.80;99624.81;5030393;28;20028;-84
2023/01/18 01:58:28;;;;;;;49.67;8.32;;;;;;;15.13;76.04;99633.47;5035970;28;20112;-84
2023/01/18 02:00:54;;;;;;;62.72;9.13;;;;;;;14.94;76.70;99601.41;5034298;28;20109;-82
2023/01/18 02:03:23;;;;;;;43.30;7.65;;;;;;;14.83;77.02;99601.78;5032179;28;20036;-84
2023/01/18 02:05:54;;;;;;;48.88;8.80;;;;;;;14.92;77.73;99625.09;5030056;28;20500;-83
2023/01/18 02:08:22;;;;;;;50.50;7.85;;;;;;;14.89;77.85;99617.34;5030040;28;20413;-85
2023/01/18 02:10:49;;;;;;;54.92;9.70;;;;;;;14.96;77.55;99623.75;5029370;28;20029;-84
2023/01/18 02:13:16;;;;;;;53.30;8.02;;;;;;;14.87;77.70;99605.84;5029805;28;20489;-84
2023/01/18 02:15:56;;;;;;;38.13;7.35;;;;;;;14.96;78.19;99610.19;5030063;28;20117;-84
2023/01/18 02:18:33;;;;;;;36.08;7.28;;;;;;;15.04;77.90;99612.03;5029929;28;20037;-84
2023/01/18 02:21:14;;;;;;;39.38;7.07;;;;;;;15.08;77.84;99606.06;5029968;28;20021;-83
2023/01/18 02:24:38;;;;;;;54.13;9.90;;;;;;;15.15;77.24;99609.75;5029616;28;20048;-83
2023/01/18 02:27:15;;;;;;;51.45;9.05;;;;;;;15.01;77.62;99602.41;4873119;29;20516;-84
2023/01/18 02:30:10;;;;;;;44.78;8.15;;;;;;;15.13;77.26;99606.41;4873356;29;20482;-85
2023/01/18 02:33:07;;;;;;;47.03;7.35;;;;;;;15.20;77.32;99607.34;4854953;29;20510;-84
2023/01/18 02:35:49;;;;;;;53.92;8.48;;;;;;;15.03;77.21;99613.91;4799793;29;20758;-83
2023/01/18 02:38:19;;;;;;;40.87;7.97;;;;;;;15.02;77.63;99612.19;4799970;29;20051;-84
2023/01/18 02:41:01;;;;;;;37.72;6.97;;;;;;;15.00;77.52;99591.75;4800233;29;20592;-83
2023/01/18 02:46:30;;;;;;;47.17;8.82;;;;;;;15.15;77.00;99615.19;4800084;29;20582;-84
2023/01/18 02:49:03;;;;;;;49.90;9.20;;;;;;;15.07;76.97;99600.84;4799989;29;20058;-84
2023/01/18 02:51:29;;;;;;;47.15;8.85;;;;;;;15.12;76.91;99598.44;4800552;29;20050;-84
2023/01/18 02:53:56;;;;;;;38.50;8.45;;;;;;;15.11;76.56;99597.59;4800833;29;20042;-82
2023/01/18 02:56:32;;;;;;;43.20;7.00;;;;;;;15.15;76.63;99598.94;4800270;29;20050;-83
2023/01/18 02:59:03;;;;;;;46.78;7.95;;;;;;;15.14;76.39;99618.03;4803784;29;20051;-84
2023/01/18 03:01:32;;;;;;;59.70;9.80;;;;;;;15.02;76.59;99625.75;4807038;29;20035;-85
2023/01/18 03:04:03;;;;;;;41.38;8.75;;;;;;;14.74;77.75;99610.16;4824552;29;20037;-85
2023/01/18 03:06:29;;;;;;;54.70;9.32;;;;;;;14.64;77.91;99616.63;4854639;29;20061;-84
2023/01/18 03:08:56;;;;;;;40.80;8.15;;;;;;;14.68;77.85;99626.06;4873578;29;20040;-83
2023/01/18 03:11:54;;;;;;;45.35;7.93;;;;;;;14.73;78.23;99608.47;4942921;28;20053;-84
2023/01/18 03:14:38;;;;;;;32.25;7.07;;;;;;;14.84;78.33;99605.34;4929600;29;20168;-82
2023/01/18 03:17:13;;;;;;;38.42;7.15;;;;;;;14.80;77.97;99596.75;4929567;29;20039;-84
2023/01/18 03:25:36;;;;;;;46.97;9.73;;;;;;;14.89;78.00;99595.69;4933826;29;20435;-83
2023/01/18 03:33:46;;;;;;;40.60;6.82;;;;;;;15.11;76.72;99586.75;4934016;29;20035;-84
2023/01/18 03:36:29;;;;;;;44.33;8.07;;;;;;;15.23;76.48;99601.56;4933679;29;20055;-83
2023/01/18 03:39:04;;;;;;;43.28;6.47;;;;;;;15.32;76.57;99609.66;4933563;29;20460;-84
2023/01/18 03:41:38;;;;;;;43.40;7.40;;;;;;;15.36;75.61;99592.00;4935674;29;20038;-83
2023/01/18 03:44:11;;;;;;;47.85;7.82;;;;;;;15.43;75.44;99615.50;4926889;29;20039;-83
2023/01/18 03:46:38;;;;;;;34.22;7.22;;;;;;;15.54;75.32;99611.53;4958746;29;20027;-85
2023/01/18 03:49:04;;;;;;;45.28;7.55;;;;;;;15.59;74.97;99606.44;4926399;29;20547;-83
2023/01/18 03:51:52;;;;;;;46.20;7.32;;;;;;;15.70;74.09;99606.00;5000136;28;20049;-82
2023/01/18 03:54:37;;;;;;;40.00;7.82;;;;;;;15.77;73.90;99615.09;4987516;28;20046;-83
2023/01/18 03:57:08;;;;;;;38.85;6.72;;;;;;;15.77;73.81;99606.97;5033899;28;20055;-83
2023/01/18 03:59:37;;;;;;;31.33;7.73;;;;;;;15.80;73.49;99598.47;5032973;28;20026;-82
2023/01/18 04:02:05;;;;;;;37.58;8.52;;;;;;;15.85;73.16;99612.28;5036570;28;20288;-83
2023/01/18 04:04:30;;;;;;;49.63;6.88;;;;;;;15.97;72.98;99629.81;5036273;28;20029;-82
2023/01/18 04:06:56;;;;;;;34.35;7.05;;;;;;;16.03;72.38;99626.38;5033082;28;20504;-83
2023/01/18 04:09:23;;;;;;;43.72;6.18;;;;;;;16.12;72.01;99627.97;5032582;28;20018;-86
2023/01/18 04:11:48;;;;;;;39.45;7.60;;;;;;;16.13;72.26;99634.25;5031818;28;20033;-84
2023/01/18 04:14:14;;;;;;;54.75;9.63;;;;;;;16.09;71.90;99616.63;5032121;28;20025;-84
2023/01/18 04:16:39;;;;;;;45.50;9.18;;;;;;;16.28;71.62;99635.09;5032007;28;20029;-83
2023/01/18 04:19:06;;;;;;;54.70;9.55;;;;;;;16.18;71.10;99629.09;5032632;28;20028;-83
2023/01/18 04:21:31;;;;;;;40.35;7.95;;;;;;;16.33;71.14;99619.94;5032009;28;20507;-85
2023/01/18 04:23:57;;;;;;;41.53;7.55;;;;;;;16.34;70.65;99620.78;5032155;28;20101;-83
2023/01/18 04:26:22;;;;;;;51.38;9.07;;;;;;;16.41;70.67;99613.59;5031988;28;20037;-83
2023/01/18 04:28:48;;;;;;;45.88;7.38;;;;;;;16.45;70.41;99614.88;5031763;28;20444;-83
2023/01/18 04:31:13;;;;;;;37.75;7.97;;;;;;;16.48;69.73;99619.94;5031797;28;20032;-84
2023/01/18 04:33:39;;;;;;;49.88;9.73;;;;;;;16.53;69.68;99616.69;5031452;28;20037;-83
2023/01/18 04:36:04;;;;;;;48.80;9.38;;;;;;;16.49;69.36;99615.38;5031924;28;20033;-84
2023/01/18 04:38:30;;;;;;;25.85;6.53;;;;;;;16.43;69.47;99616.13;5031759;28;20508;-84
2023/01/18 04:40:55;;;;;;;32.35;6.47;;;;;;;16.33;69.96;99616.38;5031667;28;20037;-82
2023/01/18 04:43:21;;;;;;;38.40;7.38;;;;;;;16.32;69.92;99607.44;5031211;28;20029;-84
2023/01/18 04:45:53;;;;;;;29.55;6.38;;;;;;;16.41;70.02;99634.47;5031879;28;20107;-85
2023/01/18 04:48:18;;;;;;;35.03;8.20;;;;;;;16.40;69.59;99621.91;5031690;28;20127;-85
2023/01/18 04:50:45;;;;;;;46.72;8.18;;;;;;;16.44;69.68;99629.50;5031356;28;20117;-83
2023/01/18 04:53:10;;;;;;;45.00;7.75;;;;;;;16.47;69.81;99622.88;5014040;28;20503;-83
2023/01/18 04:55:36;;;;;;;40.35;8.27;;;;;;;16.39;69.89;99614.81;4981076;28;20041;-82
2023/01/18 04:58:01;;;;;;;41.03;7.38;;;;;;;16.54;69.74;99618.38;5032412;28;20029;-83
2023/01/18 05:00:27;;;;;;;41.90;7.05;;;;;;;16.58;69.44;99623.25;5033597;28;20389;-85
2023/01/18 05:02:52;;;;;;;42.65;8.15;;;;;;;16.64;68.96;99627.94;5039734;28;20033;-82
2023/01/18 05:05:18;;;;;;;32.95;7.10;;;;;;;16.54;68.85;99608.41;5034432;28;20041;-82
2023/01/18 05:07:43;;;;;;;47.55;8.15;;;;;;;16.69;68.61;99624.69;5032422;28;20024;-81
2023/01/18 05:10:09;;;;;;;49.60;8.50;;;;;;;16.76;68.63;99634.56;5013689;28;20581;-83
2023/01/18 05:12:35;;;;;;;30.33;6.32;;;;;;;16.73;68.27;99634.09;5030997;28;20067;-82
2023/01/18 05:15:01;;;;;;;40.95;8.00;;;;;;;16.78;68.42;99623.53;5031409;28;20650;-87
2023/01/18 05:17:29;;;;;;;62.42;8.15;;;;;;;16.73;68.20;99620.53;5037063;28;20026;-82
2023/01/18 05:19:55;;;;;;;38.42;6.97;;;;;;;16.66;68.51;99616.91;5031414;28;20413;-82
2023/01/18 05:22:21;;;;;;;36.33;7.20;;;;;;;16.53;68.42;99589.53;5031555;28;20388;-80
2023/01/18 05:24:48;;;;;;;37.20;8.40;;;;;;;16.63;68.50;99612.69;5031603;28;20497;-84
2023/01/18 05:27:14;;;;;;;54.30;8.05;;;;;;;16.68;68.50;99614.84;5030834;28;20049;-84
2023/01/18 05:29:39;;;;;;;47.55;7.43;;;;;;;16.71;68.61;99615.31;5030954;28;20124;-82
2023/01/18 05:32:05;;;;;;;52.30;7.93;;;;;;;16.71;68.56;99614.47;5031058;28;20112;-82
2023/01/18 05:34:31;;;;;;;60.30;8.27;;;;;;;16.70;68.79;99626.34;5031362;28;20026;-82
2023/01/18 05:36:57;;;;;;;51.42;7.95;;;;;;;16.68;68.50;99640.13;5030913;28;20029;-82
2023/01/18 05:39:23;;;;;;;49.75;8.45;;;;;;;16.63;68.94;99629.00;5013440;28;20342;-82
2023/01/18 05:41:48;;;;;;;37.63;7.97;;;;;;;16.59;69.11;99630.38;5030448;28;20029;-82
2023/01/18 05:44:14;;;;;;;62.97;8.45;;;;;;;16.59;69.16;99624.97;5029715;28;20038;-81
2023/01/18 05:46:39;;;;;;;37.35;8.00;;;;;;;16.70;68.60;99629.06;5030324;28;20040;-81
2023/01/18 05:49:05;;;;;;;58.90;8.13;;;;;;;16.70;68.67;99629.91;5030323;28;20025;-82
2023/01/18 05:51:30;;;;;;;50.60;8.77;;;;;;;16.77;68.72;99630.00;5030849;28;20090;-81
2023/01/18 05:53:55;;;;;;;39.40;8.43;;;;;;;16.91;67.96;99626.41;5030964;28;20155;-82
2023/01/18 05:56:22;;;;;;;44.80;7.88;;;;;;;16.85;68.06;99638.03;5030565;28;20025;-82
2023/01/18 05:58:47;;;;;;;47.22;9.70;;;;;;;16.87;68.17;99630.56;5031143;28;20164;-82
2023/01/18 06:01:13;;;;;;;47.28;8.98;;;;;;;16.78;67.92;99620.81;5031092;28;20036;-82
2023/01/18 06:03:39;;;;;;;45.55;9.77;;;;;;;16.95;67.73;99649.44;5033036;28;20037;-83
2023/01/18 06:06:05;;;;;;;49.10;7.82;;;;;;;16.76;67.95;99622.88;5032631;28;20044;-84
2023/01/18 06:08:31;;;;;;;49.65;8.15;;;;;;;16.83;67.84;99635.50;5030647;28;20087;-82
2023/01/18 06:10:58;;;;;;;84.78;10.13;;;;;;;16.86;68.13;99629.72;5012080;28;20041;-83
2023/01/18 06:13:26;;;;;;;52.47;8.57;;;;;;;16.92;68.06;99621.81;5030150;28;20104;-82
2023/01/18 06:15:53;;;;;;;35.53;8.13;;;;;;;16.90;67.98;99627.47;5030086;28;20030;-84
2023/01/18 06:18:22;;;;;;;45.47;8.57;;;;;;;16.96;67.76;99626.69;5030842;28;20057;-81
2023/01/18 06:20:48;;;;;;;32.88;6.28;;;;;;;16.95;67.69;99643.16;4979176;28;20117;-82
2023/01/18 06:23:14;;;;;;;55.35;9.60;;;;;;;16.98;67.49;99623.78;5029960;28;20675;-82
2023/01/18 06:25:40;;;;;;;61.67;9.23;;;;;;;17.02;67.46;99634.09;5029870;28;20035;-82
2023/01/18 06:28:05;;;;;;;34.08;7.32;;;;;;;16.95;67.78;99644.03;5029990;28;20025;-82
2023/01/18 06:30:32;;;;;;;42.03;8.20;;;;;;;16.94;67.44;99642.31;5030551;28;20029;-84
2023/01/18 06:33:03;;;;;;;44.15;8.75;;;;;;;16.82;67.79;99638.41;5029890;28;20028;-82
2023/01/18 06:35:29;;;;;;;45.85;7.63;;;;;;;16.88;67.88;99649.38;5029774;28;20373;-81
2023/01/18 06:37:55;;;;;;;58.15;11.38;;;;;;;16.87;68.14;99646.84;5029742;28;20029;-82
2023/01/18 06:40:20;;;;;;;47.38;8.30;;;;;;;16.84;68.17;99648.06;5030059;28;20034;-82
2023/01/18 06:42:47;;;;;;;58.53;9.07;;;;;;;16.90;68.16;99651.91;5012068;28;20099;-82
2023/01/18 06:45:12;;;;;;;39.85;8.43;;;;;;;17.01;67.85;99667.72;5029823;28;20453;-81
2023/01/18 06:47:38;;;;;;;46.70;9.13;;;;;;;16.98;68.07;99667.25;5029765;28;20036;-81
2023/01/18 06:50:04;;;;;;;43.22;8.38;;;;;;;16.87;68.22;99657.72;5030204;28;20026;-82
2023/01/18 06:52:29;;;;;;;52.63;9.93;;;;;;;16.96;68.20;99672.88;5029473;28;20026;-86
2023/01/18 06:54:55;;;;;;;60.17;9.77;;;;;;;16.96;68.24;99681.03;5030194;28;20408;-83
2023/01/18 06:57:20;;;;;;;43.53;7.63;;;;;;;16.92;67.93;99668.84;5038125;28;20090;-81
2023/01/18 06:59:45;;;;;;;41.67;9.07;;;;;;;17.01;67.91;99692.16;5039562;28;20034;-84
2023/01/18 07:02:13;;;;;;;34.40;7.82;;;;;;;16.92;67.55;99676.16;5038271;28;20032;-83
2023/01/18 07:04:42;;;;;;;47.17;8.15;;;;;;;16.86;67.81;99680.47;5047357;28;20395;-83
2023/01/18 07:07:08;;;;;;;63.20;10.30;;;;;;;17.03;67.54;99700.94;5050385;28;20025;-81
2023/01/18 07:09:34;;;;;;;32.17;9.13;;;;;;;17.02;67.43;99699.28;5041276;28;20099;-81
2023/01/18 07:11:59;;;;;;;39.05;8.00;;;;;;;17.08;67.27;99700.41;5038086;28;20041;-83
2023/01/18 07:14:25;;;;;;;42.47;8.52;;;;;;;17.06;66.91;99708.75;5037604;28;20056;-83
2023/01/18 07:16:50;;;;;;;55.13;8.00;;;;;;;17.09;66.64;99704.81;5036484;28;20040;-82
2023/01/18 07:19:15;;;;;;;51.10;8.68;;;;;;;17.01;66.75;99697.59;5036625;28;20113;-84
2023/01/18 07:21:41;;;;;;;39.03;7.50;;;;;;;17.13;66.75;99717.81;5036072;28;20108;-82
2023/01/18 07:24:06;;;;;;;40.42;8.07;;;;;;;17.18;66.36;99698.25;5018957;28;20063;-81
2023/01/18 07:26:32;;;;;;;52.90;9.43;;;;;;;17.25;66.03;99700.00;5018500;28;20029;-81
2023/01/18 07:28:58;;;;;;;46.70;8.60;;;;;;;17.34;65.74;99698.00;5036427;28;20473;-83
2023/01/18 07:31:24;;;;;;;46.92;8.15;;;;;;;17.42;65.62;99712.34;5036168;28;20762;-81
2023/01/18 07:33:49;;;;;;;51.33;9.63;;;;;;;17.46;65.83;99709.25;5035794;28;20040;-82
2023/01/18 07:36:15;;;;;;;49.38;8.30;;;;;;;17.58;65.61;99705.03;5036086;28;20022;-81
2023/01/18 07:38:41;;;;;;;47.63;8.77;;;;;;;17.58;64.99;99702.31;5035959;28;20468;-83
2023/01/18 07:41:10;;;;;;;43.70;10.70;;;;;;;17.64;65.08;99705.09;5036646;28;20112;-84
2023/01/18 07:43:36;;;;;;;52.20;8.93;;;;;;;17.70;64.76;99698.03;5035716;28;20030;-82
2023/01/18 07:46:03;;;;;;;42.45;9.18;;;;;;;17.79;64.29;99713.19;5036874;28;20048;-81
2023/01/18 07:48:30;;;;;;;52.50;9.45;;;;;;;17.86;64.32;99708.66;5037665;28;20055;-81
2023/01/18 07:51:07;;;;;;;44.42;11.80;;;;;;;17.76;64.50;99703.56;5038139;28;20025;-82
2023/01/18 07:53:35;;;;;;;46.35;8.20;;;;;;;17.63;64.63;99702.56;5060019;28;20045;-84
2023/01/18 07:56:02;;;;;;;52.78;10.73;;;;;;;17.65;64.75;99722.22;5061461;28;20048;-83
2023/01/18 07:58:28;;;;;;;46.15;11.75;;;;;;;17.58;65.15;99727.63;5050989;28;20029;-80
2023/01/18 08:00:54;;;;;;;64.03;15.50;;;;;;;17.64;64.76;99731.44;5039488;28;20096;-82
2023/01/18 08:03:20;;;;;;;43.03;7.88;;;;;;;17.82;64.86;99740.00;5038718;28;20176;-81
2023/01/18 08:05:45;;;;;;;37.03;7.43;;;;;;;17.81;64.45;99735.59;5043046;28;20492;-80
2023/01/18 08:08:14;;;;;;;37.90;8.27;;;;;;;17.90;64.35;99743.44;5040680;28;20026;-82
2023/01/18 08:10:40;;;;;;;34.95;7.93;;;;;;;17.91;64.18;99752.47;5036227;28;20049;-82
2023/01/18 08:13:08;;;;;;;54.10;8.20;;;;;;;17.97;63.97;99750.84;5032693;28;20041;-83
2023/01/18 08:15:34;;;;;;;52.97;9.70;;;;;;;18.05;63.77;99748.81;5032264;28;20159;-82
2023/01/18 08:18:01;;;;;;;44.13;7.22;;;;;;;17.98;63.70;99737.03;5032966;28;20472;-82
2023/01/18 08:20:27;;;;;;;39.85;7.63;;;;;;;18.03;63.62;99731.88;5032643;28;20080;-83
2023/01/18 08:22:57;;;;;;;50.47;8.60;;;;;;;17.87;64.04;99729.38;5032416;28;20485;-83
2023/01/18 08:25:28;;;;;;;41.30;7.55;;;;;;;17.91;64.19;99747.03;5032032;28;20026;-84
2023/01/18 08:27:56;;;;;;;40.38;7.85;;;;;;;17.92;64.11;99738.66;5032413;28;20108;-82
2023/01/18 08:30:25;;;;;;;41.65;8.25;;;;;;;17.97;64.25;99748.97;5013987;28;20112;-82
2023/01/18 08:32:51;;;;;;;40.70;7.97;;;;;;;18.06;63.83;99752.41;5032403;28;20121;-83
2023/01/18 08:35:16;;;;;;;40.30;9.02;;;;;;;18.21;63.26;99764.06;5031880;28;20026;-83
2023/01/18 08:37:43;;;;;;;50.15;8.15;;;;;;;18.30;62.91;99749.28;5031738;28;20125;-83
2023/01/18 08:40:09;;;;;;;47.45;9.27;;;;;;;18.56;62.59;99756.88;5031729;28;20026;-82
2023/01/18 08:42:35;;;;;;;43.33;8.40;;;;;;;18.68;61.96;99749.84;5031519;28;20473;-82
2023/01/18 08:45:00;;;;;;;75.30;10.98;;;;;;;18.60;61.50;99748.09;5031905;28;20053;-83
2023/01/18 08:47:27;;;;;;;29.48;7.32;;;;;;;18.61;61.54;99735.31;5031546;28;20046;-82
2023/01/18 08:49:52;;;;;;;38.05;7.88;;;;;;;18.66;61.04;99732.84;5031873;28;20423;-83
2023/01/18 08:52:18;;;;;;;54.50;9.93;;;;;;;18.72;60.90;99724.72;5031703;28;20033;-83
2023/01/18 08:54:43;;;;;;;42.83;9.25;;;;;;;18.73;60.87;99733.72;5032013;28;20091;-82
2023/01/18 08:57:09;;;;;;;52.05;9.90;;;;;;;18.76;60.67;99734.19;5031470;28;20033;-82
2023/01/18 08:59:35;;;;;;;53.60;9.30;;;;;;;18.93;60.43;99751.03;5014823;28;20029;-82
2023/01/18 09:02:00;;;;;;;43.65;7.28;;;;;;;18.91;60.04;99745.81;5032779;28;20025;-82
2023/01/18 09:04:28;;;;;;;45.78;8.82;;;;;;;18.92;59.96;99754.84;5031408;28;20022;-82
2023/01/18 09:06:54;;;;;;;45.30;8.73;;;;;;;18.83;59.97;99728.78;5041885;28;20453;-81
2023/01/18 09:09:19;;;;;;;43.35;7.90;;;;;;;18.89;59.98;99722.53;5027583;28;20048;-82
2023/01/18 09:11:44;;;;;;;43.08;8.98;;;;;;;18.91;60.39;99712.28;5038534;28;20048;-82
2023/01/18 09:14:10;;;;;;;38.05;7.65;;;;;;;18.85;60.13;99707.63;5033117;28;20018;-81
2023/01/18 09:16:35;;;;;;;42.10;8.95;;;;;;;18.93;59.73;99702.00;5032540;28;20025;-84
2023/01/18 09:19:05;;;;;;;51.53;10.40;;;;;;;18.98;60.05;99714.00;5032956;28;20026;-81
2023/01/18 09:21:30;;;;;;;58.72;8.43;;;;;;;19.08;59.67;99708.16;5032042;28;20068;-82
2023/01/18 09:23:58;;;;;;;42.88;9.02;;;;;;;19.07;59.53;99701.03;5031135;28;20029;-82
2023/01/18 09:26:24;;;;;;;76.78;10.15;;;;;;;19.19;59.10;99695.84;5031751;28;20029;-82
2023/01/18 09:28:51;;;;;;;56.75;9.68;;;;;;;19.11;58.60;99705.03;5031957;28;20111;-84
2023/01/18 09:31:18;;;;;;;38.75;8.05;;;;;;;19.13;58.28;99694.78;5013674;28;20092;-83
2023/01/18 09:33:44;;;;;;;48.92;8.45;;;;;;;19.31;57.80;99710.59;5031081;28;20569;-82
2023/01/18 09:36:12;;;;;;;38.15;7.97;;;;;;;19.26;57.41;99692.13;5030850;28;20025;-83
2023/01/18 09:38:39;;;;;;;38.83;7.78;;;;;;;19.36;56.95;99689.00;5030916;28;20472;-84
2023/01/18 09:41:16;;;;;;;65.85;7.70;;;;;;;19.44;55.76;99695.16;5030293;28;20573;-82
2023/01/18 09:43:50;;;;;;;42.10;7.13;;;;;;;19.45;55.62;99695.97;5030033;28;20030;-83
2023/01/18 09:46:21;;;;;;;50.22;7.60;;;;;;;19.64;54.80;99710.72;5031070;28;20037;-84
2023/01/18 09:48:53;;;;;;;41.92;7.50;;;;;;;19.71;54.40;99704.25;5030531;28;20040;-84
2023/01/18 09:51:22;;;;;;;33.58;6.80;;;;;;;19.95;54.20;99725.50;5030263;28;20041;-82
2023/01/18 09:54:22;;;;;;;35.35;6.72;;;;;;;20.06;53.50;99710.41;5030342;28;20021;-82
2023/01/18 09:57:14;;;;;;;29.55;7.35;;;;;;;20.18;53.06;99710.66;5012878;28;20037;-84
2023/01/18 09:59:57;;;;;;;44.60;7.03;;;;;;;20.22;52.49;99704.53;5030422;28;20014;-83
2023/01/18 10:02:34;;;;;;;35.65;7.22;;;;;;;20.21;52.53;99691.97;5031336;28;20508;-83
2023/01/18 10:05:13;;;;;;;37.85;6.88;;;;;;;20.26;52.61;99694.06;5030967;28;20100;-83
2023/01/18 10:08:01;;;;;;;32.55;6.15;;;;;;;20.14;52.14;99690.25;5038143;28;20046;-84
2023/01/18 10:10:38;;;;;;;49.15;9.18;;;;;;;20.22;51.98;99701.81;5039985;28;20029;-84
2023/01/18 10:13:22;;;;;;;38.83;8.38;;;;;;;20.15;51.75;99670.91;5033363;28;20127;-83
2023/01/18 10:15:48;;;;;;;35.85;8.13;;;;;;;20.23;51.55;99692.56;5030293;28;20024;-81
2023/01/18 10:18:15;;;;;;;39.78;6.75;;;;;;;20.06;51.69;99666.72;4978856;28;20467;-82
2023/01/18 10:20:46;;;;;;;34.60;7.22;;;;;;;20.10;52.03;99674.28;5030150;28;20032;-82
2023/01/18 10:23:23;;;;;;;30.83;7.00;;;;;;;20.20;52.00;99673.88;5029983;28;20030;-84
2023/01/18 10:25:58;;;;;;;52.13;6.70;;;;;;;20.25;51.72;99671.34;5029734;28;20029;-82
2023/01/18 10:28:49;;;;;;;48.17;7.35;;;;;;;20.27;51.22;99663.00;5029401;28;20409;-82
2023/01/18 10:31:30;;;;;;;32.88;6.60;;;;;;;20.29;51.27;99660.88;5028934;28;20070;-84
2023/01/18 10:33:58;;;;;;;40.38;7.07;;;;;;;20.39;51.17;99667.63;5029618;28;20080;-82
2023/01/18 10:36:31;;;;;;;30.85;6.13;;;;;;;20.27;50.83;99652.91;5011441;28;20477;-84
2023/01/18 10:39:01;;;;;;;38.53;7.03;;;;;;;20.31;51.19;99669.69;5011465;28;20036;-83
2023/01/18 10:41:40;;;;;;;25.35;6.53;;;;;;;20.39;50.38;99648.50;5030156;28;20079;-84
2023/01/18 10:44:08;;;;;;;41.92;6.93;;;;;;;20.58;50.33;99674.94;4994378;28;20046;-84
2023/01/18 10:46:34;;;;;;;47.42;8.68;;;;;;;20.71;50.23;99671.34;5029706;28;20025;-83
2023/01/18 10:48:59;;;;;;;40.78;7.03;;;;;;;20.82;49.61;99678.91;5011486;28;20459;-82
2023/01/18 10:51:34;;;;;;;40.33;7.72;;;;;;;20.84;48.73;99670.47;5029807;28;20026;-84
2023/01/18 10:54:21;;;;;;;32.25;7.60;;;;;;;20.66;49.53;99679.34;5029622;28;20037;-82
2023/01/18 10:56:46;;;;;;;41.90;8.35;;;;;;;20.61;49.83;99682.69;5029665;28;20037;-83
2023/01/18 10:59:29;;;;;;;31.38;7.20;;;;;;;20.64;50.01;99687.75;5031450;28;20400;-84
2023/01/18 11:01:57;;;;;;;48.78;6.35;;;;;;;20.65;49.69;99710.44;5035172;28;20025;-83
2023/01/18 11:04:27;;;;;;;30.83;7.47;;;;;;;20.68;49.80;99703.72;4998055;28;20045;-82
2023/01/18 11:06:58;;;;;;;37.33;6.63;;;;;;;20.51;49.99;99704.16;5030285;28;20504;-84
2023/01/18 11:09:55;;;;;;;28.30;5.78;;;;;;;20.52;49.65;99711.28;5040865;28;20044;-83
2023/01/18 11:12:47;;;;;;;44.83;7.03;;;;;;;20.40;49.88;99718.44;5039877;28;20061;-83
2023/01/18 11:15:12;;;;;;;43.63;9.45;;;;;;;20.39;50.03;99699.53;5031008;28;20060;-83
2023/01/18 11:17:59;;;;;;;54.85;7.63;;;;;;;20.35;49.98;99701.00;5030146;28;20049;-83
2023/01/18 11:20:43;;;;;;;32.13;6.85;;;;;;;20.21;50.05;99700.16;5028960;28;20025;-84
2023/01/18 11:23:08;;;;;;;32.35;5.57;;;;;;;20.14;49.97;99696.56;5029022;28;20392;-83
2023/01/18 11:25:40;;;;;;;43.13;8.23;;;;;;;20.23;50.31;99702.66;5028931;28;20112;-82
2023/01/18 11:28:19;;;;;;;51.53;8.17;;;;;;;20.21;50.26;99700.16;5029413;28;20017;-84
2023/01/18 11:31:05;;;;;;;48.03;8.02;;;;;;;20.23;50.11;99706.22;5010982;28;20033;-84
2023/01/18 11:33:31;;;;;;;34.88;7.30;;;;;;;20.29;50.06;99708.16;5028936;28;20033;-82
2023/01/18 11:35:59;;;;;;;43.25;6.78;;;;;;;20.32;50.16;99709.63;5028555;28;20496;-83
2023/01/18 11:38:30;;;;;;;45.42;7.82;;;;;;;20.37;49.88;99699.75;5011558;28;20057;-84
2023/01/18 11:41:04;;;;;;;47.50;7.35;;;;;;;20.39;49.77;99697.66;5028854;28;20060;-83
2023/01/18 11:43:32;;;;;;;53.17;7.28;;;;;;;20.26;49.75;99700.38;4994642;28;20151;-82
2023/01/18 11:46:04;;;;;;;28.20;5.97;;;;;;;20.34;49.58;99702.03;5032531;28;20025;-83
2023/01/18 11:48:59;;;;;;;;;;;;;;;20.31;49.42;99686.94;5033383;28;20544;-81
2023/01/18 11:51:41;;;;;;;36.63;6.57;;;;;;;20.22;49.65;99688.16;4932908;29;19921;-84
2023/01/18 11:54:21;;;;;;;37.20;6.40;;;;;;;20.13;49.87;99681.22;4932827;29;20500;-85
2023/01/18 11:56:54;;;;;;;35.30;6.72;;;;;;;20.15;49.91;99692.75;4933504;29;20040;-82
2023/01/18 11:59:31;;;;;;;40.00;6.55;;;;;;;20.10;50.13;99692.56;4934962;29;20067;-82
2023/01/18 12:02:34;;;;;;;47.70;8.40;;;;;;;20.09;50.30;99697.19;4945989;29;20039;-82
2023/01/18 12:05:24;;;;;;;36.28;7.45;;;;;;;20.23;50.23;99695.31;4957103;29;20032;-84
2023/01/18 12:08:26;;;;;;;38.83;7.55;;;;;;;20.29;50.24;99691.78;4943362;29;20051;-83
2023/01/18 12:11:23;;;;;;;42.47;7.18;;;;;;;20.40;49.99;99699.31;4953409;29;20053;-82